Latest Weather Observations for Mount Moornapa

IDV60801

Issued at 6:32 pm EDT Tuesday 28 February 2017 (issued every 30 minutes, with the page automatically refreshed every 10 minutes)

About weather observations | Map of weather stations | Latest weather observations for VIC | Other Formats
Station Details ID: 085296 Name: MOUNT MOORNAPA Lat: -37.75 Lon: 147.14 Height: 480.0 m
Data from the previous 72 hours. | See also: Recent months at Mount Moornapa
Date/Time
EDT
Temp
°C
App
Temp
°C
Dew
Point
°C
Rel
Hum
%
Delta-T
°C
Wind Press
QNH
hPa
Press
MSL
hPa
Rain since
9am
mm
Dir  Spd
km/h
Gust
km/h
Spd
kts
Gust
kts
28/06:30pm 24.9 23.2 10.0 39 8.4 SE 9 17 5 9 - - 0.0
28/06:00pm 25.8 24.0 10.8 39 8.6 SE 11 24 6 13 - - 0.0
28/05:30pm 27.2 25.3 10.4 35 9.6 SE 11 17 6 9 - - 0.0
28/05:00pm 29.2 28.0 10.3 31 10.9 SE 7 20 4 11 - - 0.0
28/04:30pm 30.0 26.9 1.5 16 14.3 S 7 13 4 7 - - 0.0
28/04:00pm 31.1 29.0 4.0 18 14.3 SSE 4 7 2 4 - - 0.0
28/03:30pm 30.3 27.8 4.9 20 13.5 S 7 17 4 9 - - 0.0
28/03:00pm 29.7 27.4 5.7 22 12.9 SSE 7 13 4 7 - - 0.0
28/02:30pm 30.3 28.6 7.5 24 12.7 SSW 6 17 3 9 - - 0.0
28/02:00pm 29.7 28.6 9.8 29 11.4 S 6 11 3 6 - - 0.0
28/01:30pm 28.6 27.0 7.8 27 11.5 S 6 17 3 9 - - 0.0
28/01:00pm 28.3 26.7 8.6 29 11.0 S 7 15 4 8 - - 0.0
28/12:30pm 27.5 26.5 10.2 34 9.9 SSW 6 15 3 8 - - 0.0
28/12:00pm 26.7 26.0 10.0 35 9.5 SSW 4 7 2 4 - - 0.0
28/11:30am 25.8 25.3 10.8 39 8.6 SSW 4 7 2 4 - - 0.0
28/11:00am 24.6 24.0 10.5 41 8.0 SSW 4 7 2 4 - - 0.0
28/10:30am 23.2 22.5 9.9 43 7.4 SW 4 6 2 3 - - 0.0
28/10:00am 22.4 22.0 9.6 44 7.1 SSW 2 4 1 2 - - 0.0
28/09:30am 21.1 21.2 10.3 50 6.0 CALM 0 0 0 0 - - 0.0
28/09:00am 19.0 18.2 9.8 55 5.0 NW 4 6 2 3 - - 0.0
28/08:30am 18.9 18.5 9.9 56 4.9 NW 2 6 1 3 - - 0.0
28/08:00am 18.2 16.6 10.1 59 4.4 NNW 9 15 5 8 - - 0.0
28/07:30am 19.0 18.8 8.9 52 5.4 CALM 0 0 0 0 - - 0.0
28/07:00am 19.9 19.7 9.2 50 5.8 CALM 0 0 0 0 - - 0.0
28/06:30am 19.4 18.9 9.3 52 5.5 N 2 4 1 2 - - 0.0
28/06:00am 19.7 19.5 9.0 50 5.8 CALM 0 0 0 0 - - 0.0
28/05:30am 19.4 18.1 9.3 52 5.5 NNE 6 6 3 3 - - 0.0
28/05:00am 19.8 18.4 9.7 52 5.5 N 7 9 4 5 - - 0.0
28/04:30am 19.0 16.6 10.0 56 4.9 N 13 17 7 9 - - 0.0
28/04:00am 18.5 15.8 10.3 59 4.5 N 15 20 8 11 - - 0.0
28/03:30am 18.3 15.6 10.4 60 4.3 N 15 20 8 11 - - 0.0
28/03:00am 18.9 16.2 10.2 57 4.8 N 15 17 8 9 - - 0.0
28/02:30am 19.1 16.8 10.4 57 4.8 N 13 19 7 10 - - 0.0
28/02:00am 19.3 17.2 9.8 54 5.2 N 11 13 6 7 - - 0.0
28/01:30am 18.3 16.3 11.6 65 3.8 N 13 15 7 8 - - 0.0
28/01:00am 18.6 16.7 11.7 64 3.9 N 13 13 7 7 - - 0.0
28/12:30am 18.7 17.2 11.8 64 3.9 N 11 15 6 8 - - 0.0
28/12:00am 18.6 17.5 11.9 65 3.8 N 9 11 5 6 - - 0.0
 
Date/Time
EDT
Temp
°C
App
Temp
°C
Dew
Point
°C
Rel
Hum
%
Delta-T
°C
Wind Press
QNH
hPa
Press
MSL
hPa
Rain since
9am
mm
Dir  Spd
km/h
Gust
km/h
Spd
kts
Gust
kts
27/11:30pm 18.7 17.8 11.3 62 4.1 N 7 9 4 5 - - 0.0
27/11:00pm 18.6 18.1 11.9 65 3.8 NW 6 7 3 4 - - 0.0
27/10:30pm 19.1 19.1 12.4 65 3.8 NNW 4 6 2 3 - - 0.0
27/10:00pm 19.7 19.6 12.0 61 4.4 N 4 6 2 3 - - 0.0
27/09:30pm 20.1 19.6 10.8 55 5.2 N 4 4 2 2 - - 0.0
27/09:00pm 19.8 20.6 12.6 63 4.1 CALM 0 0 0 0 - - 0.0
27/08:30pm 19.6 20.4 12.6 64 4.0 CALM 0 2 0 1 - - 0.0
27/08:00pm 20.3 20.8 11.5 57 5.0 CALM 0 2 0 1 - - 0.0
27/07:30pm 21.1 20.3 10.9 52 5.7 SE 6 9 3 5 - - 0.0
27/07:00pm 22.2 21.5 11.3 50 6.2 SE 6 9 3 5 - - 0.0
27/06:30pm 23.3 22.4 11.4 47 6.8 SE 7 13 4 7 - - 0.0
27/06:00pm 24.6 23.9 11.9 45 7.4 SE 7 17 4 9 - - 0.0
27/05:30pm 25.8 25.3 11.9 42 8.1 ESE 6 11 3 6 - - 0.0
27/05:00pm 26.4 25.5 12.5 42 8.2 SE 9 20 5 11 - - 0.0
27/04:30pm 27.1 26.3 11.6 38 9.1 SE 7 17 4 9 - - 0.0
27/04:00pm 27.3 26.4 11.3 37 9.3 SE 7 15 4 8 - - 0.0
27/03:30pm 28.4 27.5 11.5 35 9.9 SSE 7 15 4 8 - - 0.0
27/03:00pm 28.3 27.6 11.4 35 9.9 S 6 13 3 7 - - 0.0
27/02:30pm 27.5 26.5 11.1 36 9.5 SSE 7 17 4 9 - - 0.0
27/02:00pm 27.8 27.2 11.8 37 9.4 S 6 13 3 7 - - 0.0
27/01:30pm 27.1 27.3 13.1 42 8.4 S 4 9 2 5 - - 0.0
27/01:00pm 26.3 25.9 12.4 42 8.2 SSW 6 13 3 7 - - 0.0
27/12:30pm 25.7 25.6 13.2 46 7.5 S 6 15 3 8 - - 0.0
27/12:00pm 24.2 23.8 12.5 48 6.9 S 6 9 3 5 - - 0.0
27/11:30am 22.9 22.4 12.2 51 6.2 S 6 11 3 6 - - 0.0
27/11:00am 22.2 22.0 11.9 52 5.9 S 4 6 2 3 - - 0.0
27/10:30am 20.0 20.2 11.8 59 4.7 S 2 4 1 2 - - 0.0
27/10:00am 20.0 20.2 12.0 60 4.6 NW 2 4 1 2 - - 0.0
27/09:30am 18.8 18.5 11.6 63 4.0 N 4 9 2 5 - - 0.0
27/09:00am 17.3 16.3 10.9 66 3.5 N 7 11 4 6 - - 0.0
27/08:30am 17.5 17.9 11.1 66 3.5 CALM 0 6 0 3 - - 0.0
27/08:00am 17.3 16.9 11.1 67 3.4 NNE 4 4 2 2 - - 0.0
27/07:30am 15.8 14.9 11.2 74 2.5 NNE 7 9 4 5 - - 0.0
27/07:00am 15.4 14.6 11.2 76 2.3 N 6 7 3 4 - - 0.0
27/06:30am 15.2 13.9 11.2 77 2.2 N 9 9 5 5 - - 0.0
27/06:00am 15.0 14.4 11.6 80 1.9 N 6 7 3 4 - - 0.0
27/05:30am 15.2 14.7 12.0 81 1.8 NNE 6 7 3 4 - - 0.0
27/05:00am 14.0 14.1 11.5 85 1.4 E 2 6 1 3 - - 0.0
27/04:30am 14.4 14.2 11.9 85 1.4 ENE 4 6 2 3 - - 0.0
27/04:00am 14.6 14.0 11.7 83 1.6 NE 6 7 3 4 - - 0.0
27/03:30am 15.2 15.4 11.8 80 1.9 E 2 4 1 2 - - 0.0
27/03:00am 15.3 14.8 12.1 81 1.8 NNE 6 6 3 3 - - 0.0
27/02:30am 15.0 14.4 11.8 81 1.8 N 6 6 3 3 - - 0.0
27/02:00am 14.1 13.6 12.0 87 1.2 NNW 6 6 3 3 - - 0.0
27/01:30am 13.4 12.9 12.1 92 0.7 NNW 6 7 3 4 - - 0.0
27/01:00am 13.3 12.8 12.2 93 0.6 NW 6 7 3 4 - - 0.0
27/12:30am 13.2 12.7 11.9 92 0.7 NW 6 7 3 4 - - 0.0
27/12:00am 13.3 12.8 12.0 92 0.7 NW 6 7 3 4 - - 0.0
 
Date/Time
EDT
Temp
°C
App
Temp
°C
Dew
Point
°C
Rel
Hum
%
Delta-T
°C
Wind Press
QNH
hPa
Press
MSL
hPa
Rain since
9am
mm
Dir  Spd
km/h
Gust
km/h
Spd
kts
Gust
kts
26/11:30pm 13.3 12.6 11.9 91 0.8 N 7 9 4 5 - - 0.0
26/11:00pm 13.8 13.7 12.2 90 0.9 NNE 4 7 2 4 - - 0.0
26/10:30pm 13.4 13.2 11.8 90 0.9 E 4 7 2 4 - - 0.0
26/10:00pm 13.6 13.1 12.0 90 0.9 ESE 6 11 3 6 - - 0.0
26/09:30pm 13.9 13.4 12.1 89 1.0 ESE 6 7 3 4 - - 0.0
26/09:00pm 14.2 14.1 12.1 87 1.2 ESE 4 7 2 4 - - 0.0
26/08:30pm 14.7 14.6 12.0 84 1.5 E 4 11 2 6 - - 0.0
26/08:00pm 15.4 14.7 11.4 77 2.2 ESE 6 11 3 6 - - 0.0
26/07:30pm 16.8 16.4 11.1 69 3.1 ESE 4 9 2 5 - - 0.0
26/07:00pm 18.6 18.3 11.4 63 4.0 SE 4 9 2 5 - - 0.0
26/06:30pm 19.4 18.5 11.2 59 4.6 ESE 7 20 4 11 - - 0.0
26/06:00pm 19.8 18.0 11.0 57 4.9 ESE 11 22 6 12 - - 0.0
26/05:30pm 20.9 19.6 11.3 54 5.4 ESE 9 19 5 10 - - 0.0
26/05:00pm 22.1 21.0 11.8 52 5.9 ESE 9 24 5 13 - - 0.0
26/04:30pm 22.5 21.3 11.6 50 6.2 ESE 9 20 5 11 - - 0.0
26/04:00pm 22.7 21.4 11.4 49 6.5 SE 9 19 5 10 - - 0.0
26/03:30pm 23.3 22.2 12.0 49 6.5 ESE 9 20 5 11 - - 0.0
26/03:00pm 23.8 22.6 11.5 46 7.1 SE 9 17 5 9 - - 0.0
26/02:30pm 23.7 22.8 11.4 46 7.1 SE 7 17 4 9 - - 0.0
26/02:00pm 23.8 23.0 11.8 47 6.9 SE 7 20 4 11 - - 0.0
26/01:30pm 22.4 20.8 10.2 46 6.8 E 9 19 5 10 - - 0.0
26/01:00pm 23.5 22.8 11.5 47 6.9 ESE 6 15 3 8 - - 0.0
26/12:30pm 22.1 21.1 10.3 47 6.6 E 6 13 3 7 - - 0.0
26/12:00pm 21.4 20.6 10.9 51 5.9 ESE 6 13 3 7 - - 0.0
26/11:30am 20.7 20.3 11.1 54 5.4 SE 4 9 2 5 - - 0.0
26/11:00am 19.4 18.9 10.9 58 4.7 SE 4 7 2 4 - - 0.0
26/10:30am 19.0 19.0 11.3 61 4.3 ENE 2 6 1 3 - - 0.0
26/10:00am 17.8 17.8 11.1 65 3.7 ENE 2 6 1 3 - - 0.0
26/09:30am 16.5 16.1 11.2 71 2.9 ENE 4 9 2 5 - - 0.0
26/09:00am 14.7 14.2 10.7 77 2.2 E 4 7 2 4 - - 0.0
26/08:30am 14.0 13.2 11.0 82 1.6 E 6 11 3 6 - - 0.0
26/08:00am 12.9 12.0 10.8 87 1.1 ENE 6 9 3 5 - - 0.0
26/07:30am 11.7 10.6 10.8 94 0.5 E 7 9 4 5 - - 0.0
26/07:00am 11.3 10.2 10.5 95 0.4 E 7 9 4 5 - - 0.0
26/06:30am 11.6 11.1 10.7 94 0.5 E 4 6 2 3 - - 0.0
26/06:00am 11.7 11.5 10.6 93 0.6 E 2 6 1 3 - - 0.0
26/05:30am 11.8 11.3 10.7 93 0.6 NNE 4 7 2 4 - - 0.0
26/05:00am 12.1 11.5 10.3 89 1.0 NNE 4 9 2 5 - - 0.0
26/04:30am 13.0 12.5 10.9 87 1.1 ENE 4 9 2 5 - - 0.0
26/04:00am 13.0 12.2 10.9 87 1.1 E 6 13 3 7 - - 0.0
26/03:30am 13.1 12.1 11.0 87 1.1 E 7 17 4 9 - - 0.0
26/03:00am 13.1 12.7 11.0 87 1.1 E 4 9 2 5 - - 0.0
26/02:30am 13.2 12.2 11.1 87 1.1 E 7 19 4 10 - - 0.0
26/02:00am 13.2 12.4 11.1 87 1.1 E 6 15 3 8 - - 0.0
26/01:30am 13.3 12.4 11.2 87 1.1 ESE 7 17 4 9 - - 0.0
26/01:00am 13.4 12.7 11.5 88 1.0 ESE 6 13 3 7 - - 0.0
26/12:30am 13.4 12.6 11.6 89 1.0 ESE 7 17 4 9 - - 0.0
26/12:00am 13.4 12.9 12.0 91 0.8 E 6 24 3 13 - - 0.0
 
Date/Time
EDT
Temp
°C
App
Temp
°C
Dew
Point
°C
Rel
Hum
%
Delta-T
°C
Wind Press
QNH
hPa
Press
MSL
hPa
Rain since
9am
mm
Dir  Spd
km/h
Gust
km/h
Spd
kts
Gust
kts
25/11:30pm 13.6 13.3 12.7 94 0.5 E 6 20 3 11 - - 0.0
25/11:00pm 13.7 13.4 13.2 97 0.3 E 7 20 4 11 - - 0.0
25/10:30pm 13.7 13.0 13.2 97 0.3 ESE 9 26 5 14 - - 0.0
25/10:00pm 14.2 14.2 13.6 96 0.3 ESE 6 15 3 8 - - 0.0
25/09:30pm 14.4 14.7 13.3 93 0.6 ESE 4 15 2 8 - - 0.0
25/09:00pm 14.5 14.2 13.4 93 0.6 E 7 20 4 11 - - 0.0
25/08:30pm 14.4 14.6 13.1 92 0.7 ESE 4 11 2 6 - - 0.0
25/08:00pm 14.4 14.5 12.8 90 0.9 ESE 4 17 2 9 - - 0.0
25/07:30pm 14.8 14.2 12.3 85 1.4 ESE 7 19 4 10 - - 0.0
25/07:00pm 14.9 14.3 12.2 84 1.5 ESE 7 19 4 10 - - 0.0

Other Formats:

Comma delimited format used in spreadsheet applications
http://www.bom.gov.au/fwo/IDV60801/IDV60801.95913.axf

JavaScript Object Notation format (JSON) in row-major order
http://www.bom.gov.au/fwo/IDV60801/IDV60801.95913.json